sensor_id;sensor_type;location;lat;lon;timestamp;pressure;altitude;pressure_sealevel;temperature;humidity
66385;BME280;53426;55.872;37.462;2023-07-13T00:00:36;98323.59;;;12.67;77.27
66385;BME280;53426;55.872;37.462;2023-07-13T00:03:03;98319.94;;;12.68;76.98
66385;BME280;53426;55.872;37.462;2023-07-13T00:05:30;98296.78;;;12.46;77.39
66385;BME280;53426;55.872;37.462;2023-07-13T00:07:56;98302.72;;;12.56;77.89
66385;BME280;53426;55.872;37.462;2023-07-13T00:10:22;98286.00;;;12.47;77.69
66385;BME280;53426;55.872;37.462;2023-07-13T00:12:49;98319.25;;;12.66;77.58
66385;BME280;53426;55.872;37.462;2023-07-13T00:15:22;98313.63;;;12.61;77.32
66385;BME280;53426;55.872;37.462;2023-07-13T00:17:50;98304.53;;;12.64;77.76
66385;BME280;53426;55.872;37.462;2023-07-13T00:20:16;98305.50;;;12.63;77.67
66385;BME280;53426;55.872;37.462;2023-07-13T00:22:43;98313.78;;;12.68;77.73
66385;BME280;53426;55.872;37.462;2023-07-13T00:25:12;98305.69;;;12.61;77.91
66385;BME280;53426;55.872;37.462;2023-07-13T00:27:38;98308.16;;;12.63;77.56
66385;BME280;53426;55.872;37.462;2023-07-13T00:30:05;98299.72;;;12.59;77.75
66385;BME280;53426;55.872;37.462;2023-07-13T00:32:31;98314.78;;;12.67;78.04
66385;BME280;53426;55.872;37.462;2023-07-13T00:34:59;98316.97;;;12.63;77.93
66385;BME280;53426;55.872;37.462;2023-07-13T00:37:29;98306.03;;;12.58;78.16
66385;BME280;53426;55.872;37.462;2023-07-13T00:39:58;98298.69;;;12.60;78.16
66385;BME280;53426;55.872;37.462;2023-07-13T00:42:25;98302.38;;;12.59;78.55
66385;BME280;53426;55.872;37.462;2023-07-13T00:47:38;98308.34;;;12.61;78.74
66385;BME280;53426;55.872;37.462;2023-07-13T00:50:07;98309.00;;;12.63;78.07
66385;BME280;53426;55.872;37.462;2023-07-13T00:52:36;98290.78;;;12.52;78.84
66385;BME280;53426;55.872;37.462;2023-07-13T00:55:04;98298.06;;;12.58;78.70
66385;BME280;53426;55.872;37.462;2023-07-13T00:57:31;98276.84;;;12.50;78.53
66385;BME280;53426;55.872;37.462;2023-07-13T00:59:59;98297.19;;;12.66;78.33
66385;BME280;53426;55.872;37.462;2023-07-13T01:02:33;98303.84;;;12.70;78.69
66385;BME280;53426;55.872;37.462;2023-07-13T01:05:00;98296.69;;;12.70;78.57
66385;BME280;53426;55.872;37.462;2023-07-13T01:07:30;98296.72;;;12.62;78.16
66385;BME280;53426;55.872;37.462;2023-07-13T01:09:57;98266.25;;;12.42;78.57
66385;BME280;53426;55.872;37.462;2023-07-13T01:12:23;98303.84;;;12.70;78.54
66385;BME280;53426;55.872;37.462;2023-07-13T01:14:57;98281.78;;;12.61;78.50
66385;BME280;53426;55.872;37.462;2023-07-13T01:17:23;98238.09;;;12.33;78.45
66385;BME280;53426;55.872;37.462;2023-07-13T01:19:50;98267.03;;;12.58;78.46
66385;BME280;53426;55.872;37.462;2023-07-13T01:22:17;98300.50;;;12.76;78.48
66385;BME280;53426;55.872;37.462;2023-07-13T01:24:46;98292.53;;;12.76;77.92
66385;BME280;53426;55.872;37.462;2023-07-13T01:27:17;98288.22;;;12.75;78.14
66385;BME280;53426;55.872;37.462;2023-07-13T01:29:45;98282.59;;;12.70;77.81
66385;BME280;53426;55.872;37.462;2023-07-13T01:32:23;98286.72;;;12.72;78.46
66385;BME280;53426;55.872;37.462;2023-07-13T01:34:51;98291.50;;;12.77;78.31
66385;BME280;53426;55.872;37.462;2023-07-13T01:37:21;98270.78;;;12.72;77.94
66385;BME280;53426;55.872;37.462;2023-07-13T01:39:47;98259.69;;;12.69;77.76
66385;BME280;53426;55.872;37.462;2023-07-13T01:42:13;98276.69;;;12.82;77.84
66385;BME280;53426;55.872;37.462;2023-07-13T01:44:41;98252.72;;;12.68;77.90
66385;BME280;53426;55.872;37.462;2023-07-13T01:47:07;98263.94;;;12.78;77.86
66385;BME280;53426;55.872;37.462;2023-07-13T01:49:33;98252.19;;;12.72;77.31
66385;BME280;53426;55.872;37.462;2023-07-13T01:52:00;98266.91;;;12.83;77.86
66385;BME280;53426;55.872;37.462;2023-07-13T01:54:26;98270.22;;;12.85;77.95
66385;BME280;53426;55.872;37.462;2023-07-13T01:56:52;98249.72;;;12.71;77.99
66385;BME280;53426;55.872;37.462;2023-07-13T01:59:17;98267.72;;;12.91;78.14
66385;BME280;53426;55.872;37.462;2023-07-13T02:01:43;98247.47;;;12.82;77.47
66385;BME280;53426;55.872;37.462;2023-07-13T02:04:09;98259.72;;;12.91;77.51
66385;BME280;53426;55.872;37.462;2023-07-13T02:06:36;98245.50;;;12.84;77.69
66385;BME280;53426;55.872;37.462;2023-07-13T02:09:03;98260.88;;;12.97;77.48
66385;BME280;53426;55.872;37.462;2023-07-13T02:11:28;98246.25;;;12.93;76.85
66385;BME280;53426;55.872;37.462;2023-07-13T02:14:03;98247.09;;;12.93;77.37
66385;BME280;53426;55.872;37.462;2023-07-13T02:16:32;98244.72;;;12.98;77.44
66385;BME280;53426;55.872;37.462;2023-07-13T02:18:58;98255.66;;;13.12;77.02
66385;BME280;53426;55.872;37.462;2023-07-13T02:21:24;98257.59;;;13.18;76.94
66385;BME280;53426;55.872;37.462;2023-07-13T02:23:52;98241.66;;;13.10;76.32
66385;BME280;53426;55.872;37.462;2023-07-13T02:26:18;98234.44;;;13.04;76.23
66385;BME280;53426;55.872;37.462;2023-07-13T02:28:44;98252.28;;;13.18;76.73
66385;BME280;53426;55.872;37.462;2023-07-13T02:31:14;98243.41;;;13.03;76.34
66385;BME280;53426;55.872;37.462;2023-07-13T02:33:40;98240.38;;;13.14;76.74
66385;BME280;53426;55.872;37.462;2023-07-13T02:36:07;98246.31;;;13.16;76.64
66385;BME280;53426;55.872;37.462;2023-07-13T02:38:33;98242.81;;;13.15;76.20
66385;BME280;53426;55.872;37.462;2023-07-13T02:41:03;98253.28;;;13.17;76.62
66385;BME280;53426;55.872;37.462;2023-07-13T02:43:29;98214.88;;;12.96;76.52
66385;BME280;53426;55.872;37.462;2023-07-13T02:45:55;98244.66;;;13.15;76.48
66385;BME280;53426;55.872;37.462;2023-07-13T02:48:21;98244.78;;;13.21;76.45
66385;BME280;53426;55.872;37.462;2023-07-13T02:50:50;98224.09;;;13.09;76.47
66385;BME280;53426;55.872;37.462;2023-07-13T02:53:16;98229.06;;;13.12;76.38
66385;BME280;53426;55.872;37.462;2023-07-13T02:55:42;98249.28;;;13.21;76.07
66385;BME280;53426;55.872;37.462;2023-07-13T02:58:13;98206.72;;;12.98;76.18
66385;BME280;53426;55.872;37.462;2023-07-13T03:00:43;98247.44;;;13.21;76.10
66385;BME280;53426;55.872;37.462;2023-07-13T03:03:13;98213.81;;;13.06;76.16
66385;BME280;53426;55.872;37.462;2023-07-13T03:05:42;98226.25;;;13.13;75.80
66385;BME280;53426;55.872;37.462;2023-07-13T03:08:11;98183.31;;;12.93;75.95
66385;BME280;53426;55.872;37.462;2023-07-13T03:10:40;98236.41;;;13.32;76.04
66385;BME280;53426;55.872;37.462;2023-07-13T03:13:08;98242.09;;;13.29;75.77
66385;BME280;53426;55.872;37.462;2023-07-13T03:15:34;98232.63;;;13.27;76.17
66385;BME280;53426;55.872;37.462;2023-07-13T03:18:00;98239.13;;;13.24;75.84
66385;BME280;53426;55.872;37.462;2023-07-13T03:20:26;98239.88;;;13.33;76.18
66385;BME280;53426;55.872;37.462;2023-07-13T03:22:52;98240.34;;;13.36;75.61
66385;BME280;53426;55.872;37.462;2023-07-13T03:25:19;98244.66;;;13.37;76.05
66385;BME280;53426;55.872;37.462;2023-07-13T03:27:45;98243.94;;;13.44;76.00
66385;BME280;53426;55.872;37.462;2023-07-13T03:30:11;98240.13;;;13.46;76.03
66385;BME280;53426;55.872;37.462;2023-07-13T03:32:37;98249.13;;;13.60;75.56
66385;BME280;53426;55.872;37.462;2023-07-13T03:35:05;98249.31;;;13.58;75.49
66385;BME280;53426;55.872;37.462;2023-07-13T03:37:31;98244.09;;;13.65;75.15
66385;BME280;53426;55.872;37.462;2023-07-13T03:39:57;98260.72;;;13.67;75.01
66385;BME280;53426;55.872;37.462;2023-07-13T03:42:25;98239.00;;;13.63;74.86
66385;BME280;53426;55.872;37.462;2023-07-13T03:44:53;98260.56;;;13.68;74.84
66385;BME280;53426;55.872;37.462;2023-07-13T03:47:22;98232.00;;;13.62;75.17
66385;BME280;53426;55.872;37.462;2023-07-13T03:49:47;98253.97;;;13.79;75.25
66385;BME280;53426;55.872;37.462;2023-07-13T03:52:13;98246.22;;;13.69;75.23
66385;BME280;53426;55.872;37.462;2023-07-13T03:54:41;98252.44;;;13.85;75.21
66385;BME280;53426;55.872;37.462;2023-07-13T03:57:08;98249.56;;;13.86;74.60
66385;BME280;53426;55.872;37.462;2023-07-13T03:59:35;98255.00;;;13.93;74.68
66385;BME280;53426;55.872;37.462;2023-07-13T04:02:02;98252.00;;;13.96;74.29
66385;BME280;53426;55.872;37.462;2023-07-13T04:04:32;98246.63;;;13.81;74.36
66385;BME280;53426;55.872;37.462;2023-07-13T04:06:59;98228.81;;;13.81;74.34
66385;BME280;53426;55.872;37.462;2023-07-13T04:18:29;98269.50;;;14.05;73.68
66385;BME280;53426;55.872;37.462;2023-07-13T04:20:55;98261.97;;;13.94;73.91
66385;BME280;53426;55.872;37.462;2023-07-13T04:23:23;98245.44;;;13.83;74.23
66385;BME280;53426;55.872;37.462;2023-07-13T04:25:51;98226.31;;;13.65;74.32
66385;BME280;53426;55.872;37.462;2023-07-13T04:28:20;98270.34;;;13.91;74.36
66385;BME280;53426;55.872;37.462;2023-07-13T04:30:49;98256.47;;;13.95;74.61
66385;BME280;53426;55.872;37.462;2023-07-13T04:33:16;98244.34;;;13.93;74.20
66385;BME280;53426;55.872;37.462;2023-07-13T04:35:51;98233.25;;;13.89;74.03
66385;BME280;53426;55.872;37.462;2023-07-13T04:38:25;98205.69;;;13.67;73.63
66385;BME280;53426;55.872;37.462;2023-07-13T04:41:08;98073.06;;;12.97;73.55
66385;BME280;53426;55.872;37.462;2023-07-13T04:43:38;98223.53;;;13.96;74.04
66385;BME280;53426;55.872;37.462;2023-07-13T04:46:10;98057.03;;;13.06;73.61
66385;BME280;53426;55.872;37.462;2023-07-13T04:49:27;98250.91;;;14.34;73.35
66385;BME280;53426;55.872;37.462;2023-07-13T04:51:53;98254.50;;;14.41;73.65
66385;BME280;53426;55.872;37.462;2023-07-13T04:54:20;98259.56;;;14.51;72.90
66385;BME280;53426;55.872;37.462;2023-07-13T04:56:47;98253.94;;;14.60;72.76
66385;BME280;53426;55.872;37.462;2023-07-13T04:59:13;98248.50;;;14.69;72.19
66385;BME280;53426;55.872;37.462;2023-07-13T05:04:35;98262.00;;;15.18;71.85
66385;BME280;53426;55.872;37.462;2023-07-13T05:07:26;98263.47;;;15.41;71.00
66385;BME280;53426;55.872;37.462;2023-07-13T05:09:52;98134.09;;;14.46;70.40
66385;BME280;53426;55.872;37.462;2023-07-13T05:12:54;98236.03;;;15.47;69.32
66385;BME280;53426;55.872;37.462;2023-07-13T05:15:33;98280.13;;;15.86;69.05
66385;BME280;53426;55.872;37.462;2023-07-13T05:18:11;98165.25;;;15.24;68.71
66385;BME280;53426;55.872;37.462;2023-07-13T05:20:37;98247.16;;;16.00;67.81
66385;BME280;53426;55.872;37.462;2023-07-13T05:23:05;98243.88;;;16.32;65.80
66385;BME280;53426;55.872;37.462;2023-07-13T05:25:31;98268.75;;;17.15;64.92
66385;BME280;53426;55.872;37.462;2023-07-13T05:27:58;98262.22;;;17.37;64.10
66385;BME280;53426;55.872;37.462;2023-07-13T05:30:24;98258.50;;;17.32;62.99
66385;BME280;53426;55.872;37.462;2023-07-13T05:32:51;98260.97;;;17.27;64.02
66385;BME280;53426;55.872;37.462;2023-07-13T05:35:17;98264.66;;;17.26;63.56
66385;BME280;53426;55.872;37.462;2023-07-13T05:37:44;98256.41;;;17.14;63.40
66385;BME280;53426;55.872;37.462;2023-07-13T05:40:10;98235.81;;;17.01;63.22
66385;BME280;53426;55.872;37.462;2023-07-13T05:42:36;98246.13;;;17.11;62.93
66385;BME280;53426;55.872;37.462;2023-07-13T05:45:02;98251.38;;;16.91;63.53
66385;BME280;53426;55.872;37.462;2023-07-13T05:47:30;98249.84;;;17.17;63.14
66385;BME280;53426;55.872;37.462;2023-07-13T05:49:58;98229.25;;;17.10;62.30
66385;BME280;53426;55.872;37.462;2023-07-13T05:52:23;98258.28;;;17.27;62.60
66385;BME280;53426;55.872;37.462;2023-07-13T05:54:49;98249.03;;;17.36;61.80
66385;BME280;53426;55.872;37.462;2023-07-13T05:57:16;98247.81;;;17.38;61.77
66385;BME280;53426;55.872;37.462;2023-07-13T05:59:42;98244.53;;;17.43;61.72
66385;BME280;53426;55.872;37.462;2023-07-13T06:02:09;98234.25;;;17.53;61.30
66385;BME280;53426;55.872;37.462;2023-07-13T06:04:36;98238.38;;;17.49;60.79
66385;BME280;53426;55.872;37.462;2023-07-13T06:07:02;98214.66;;;17.20;61.04
66385;BME280;53426;55.872;37.462;2023-07-13T06:09:28;98231.97;;;17.37;60.81
66385;BME280;53426;55.872;37.462;2023-07-13T06:11:54;98211.81;;;17.54;60.42
66385;BME280;53426;55.872;37.462;2023-07-13T06:14:20;98197.22;;;17.63;59.72
66385;BME280;53426;55.872;37.462;2023-07-13T06:16:46;98240.06;;;17.83;59.14
66385;BME280;53426;55.872;37.462;2023-07-13T06:19:11;98229.34;;;17.89;59.52
66385;BME280;53426;55.872;37.462;2023-07-13T06:21:37;98227.06;;;18.06;58.62
66385;BME280;53426;55.872;37.462;2023-07-13T06:24:03;98214.03;;;18.23;57.80
66385;BME280;53426;55.872;37.462;2023-07-13T06:26:29;98232.72;;;18.62;57.74
66385;BME280;53426;55.872;37.462;2023-07-13T06:28:55;98223.31;;;18.91;56.68
66385;BME280;53426;55.872;37.462;2023-07-13T06:31:21;98229.84;;;19.08;56.00
66385;BME280;53426;55.872;37.462;2023-07-13T06:33:47;98225.09;;;19.04;55.59
66385;BME280;53426;55.872;37.462;2023-07-13T06:36:14;98218.66;;;18.73;57.25
66385;BME280;53426;55.872;37.462;2023-07-13T06:38:40;98226.91;;;18.72;55.87
66385;BME280;53426;55.872;37.462;2023-07-13T06:41:07;98219.97;;;18.45;56.05
66385;BME280;53426;55.872;37.462;2023-07-13T06:43:33;98214.88;;;18.23;56.37
66385;BME280;53426;55.872;37.462;2023-07-13T06:45:59;98218.19;;;18.06;56.75
66385;BME280;53426;55.872;37.462;2023-07-13T06:48:27;98204.44;;;17.82;57.28
66385;BME280;53426;55.872;37.462;2023-07-13T06:50:52;98219.66;;;17.69;57.96
66385;BME280;53426;55.872;37.462;2023-07-13T06:53:20;98214.50;;;17.54;58.60
66385;BME280;53426;55.872;37.462;2023-07-13T06:55:46;98221.72;;;17.60;57.69
66385;BME280;53426;55.872;37.462;2023-07-13T06:58:13;98221.75;;;17.67;58.15
66385;BME280;53426;55.872;37.462;2023-07-13T07:00:39;98203.78;;;17.54;57.98
66385;BME280;53426;55.872;37.462;2023-07-13T07:03:06;98215.34;;;17.74;56.89
66385;BME280;53426;55.872;37.462;2023-07-13T07:05:32;98211.22;;;17.78;56.88
66385;BME280;53426;55.872;37.462;2023-07-13T07:07:58;98210.59;;;18.03;56.17
66385;BME280;53426;55.872;37.462;2023-07-13T07:10:24;98209.88;;;18.47;55.35
66385;BME280;53426;55.872;37.462;2023-07-13T07:12:49;98173.56;;;18.44;54.21
66385;BME280;53426;55.872;37.462;2023-07-13T07:15:16;98211.59;;;18.86;54.21
66385;BME280;53426;55.872;37.462;2023-07-13T07:17:42;98200.75;;;18.61;53.81
66385;BME280;53426;55.872;37.462;2023-07-13T07:20:10;98191.38;;;18.32;54.31
66385;BME280;53426;55.872;37.462;2023-07-13T07:22:36;98217.31;;;18.38;55.12
66385;BME280;53426;55.872;37.462;2023-07-13T07:25:03;98226.78;;;18.34;55.56
66385;BME280;53426;55.872;37.462;2023-07-13T07:27:29;98218.19;;;18.06;56.20
66385;BME280;53426;55.872;37.462;2023-07-13T07:29:55;98235.94;;;18.00;56.99
66385;BME280;53426;55.872;37.462;2023-07-13T07:32:23;98229.75;;;17.80;57.26
66385;BME280;53426;55.872;37.462;2023-07-13T07:34:49;98237.16;;;17.91;57.62
66385;BME280;53426;55.872;37.462;2023-07-13T07:37:15;98207.53;;;17.66;57.34
66385;BME280;53426;55.872;37.462;2023-07-13T07:39:43;98244.78;;;17.68;58.05
66385;BME280;53426;55.872;37.462;2023-07-13T07:42:09;98237.59;;;17.62;58.37
66385;BME280;53426;55.872;37.462;2023-07-13T07:44:35;98244.13;;;17.46;59.75
66385;BME280;53426;55.872;37.462;2023-07-13T07:47:01;98240.41;;;17.34;59.93
66385;BME280;53426;55.872;37.462;2023-07-13T07:49:27;98241.25;;;17.34;60.31
66385;BME280;53426;55.872;37.462;2023-07-13T07:51:53;98228.47;;;17.23;61.08
66385;BME280;53426;55.872;37.462;2023-07-13T07:54:19;98233.78;;;17.30;60.12
66385;BME280;53426;55.872;37.462;2023-07-13T07:56:45;98224.53;;;17.26;61.06
66385;BME280;53426;55.872;37.462;2023-07-13T07:59:11;98190.94;;;17.03;60.42
66385;BME280;53426;55.872;37.462;2023-07-13T08:01:37;98227.63;;;17.23;60.58
66385;BME280;53426;55.872;37.462;2023-07-13T08:04:04;98209.09;;;17.14;61.09
66385;BME280;53426;55.872;37.462;2023-07-13T08:06:33;98248.44;;;17.34;60.85
66385;BME280;53426;55.872;37.462;2023-07-13T08:08:59;98233.78;;;17.30;60.59
66385;BME280;53426;55.872;37.462;2023-07-13T08:11:27;98210.31;;;17.19;60.66
66385;BME280;53426;55.872;37.462;2023-07-13T08:13:53;98243.50;;;17.37;60.38
66385;BME280;53426;55.872;37.462;2023-07-13T08:16:19;98234.25;;;17.40;60.40
66385;BME280;53426;55.872;37.462;2023-07-13T08:18:45;98248.44;;;17.40;61.00
66385;BME280;53426;55.872;37.462;2023-07-13T08:21:11;98224.31;;;17.21;60.63
66385;BME280;53426;55.872;37.462;2023-07-13T08:23:37;98250.25;;;17.20;61.32
66385;BME280;53426;55.872;37.462;2023-07-13T08:26:03;98245.28;;;17.10;61.94
66385;BME280;53426;55.872;37.462;2023-07-13T08:28:30;98232.91;;;16.96;61.81
66385;BME280;53426;55.872;37.462;2023-07-13T08:31:01;98237.88;;;17.06;62.49
66385;BME280;53426;55.872;37.462;2023-07-13T08:33:27;98242.19;;;17.13;62.49
66385;BME280;53426;55.872;37.462;2023-07-13T08:35:53;98188.22;;;16.77;62.37
66385;BME280;53426;55.872;37.462;2023-07-13T08:38:18;98203.25;;;16.85;62.61
66385;BME280;53426;55.872;37.462;2023-07-13T08:40:50;98252.06;;;17.13;63.16
66385;BME280;53426;55.872;37.462;2023-07-13T08:43:22;98246.94;;;17.11;63.49
66385;BME280;53426;55.872;37.462;2023-07-13T08:46:05;98248.81;;;17.18;63.06
66385;BME280;53426;55.872;37.462;2023-07-13T08:48:38;98255.94;;;16.97;63.77
66385;BME280;53426;55.872;37.462;2023-07-13T08:54:01;98252.81;;;16.87;64.50
66385;BME280;53426;55.872;37.462;2023-07-13T08:56:30;98231.22;;;16.89;64.11
66385;BME280;53426;55.872;37.462;2023-07-13T08:59:12;98257.63;;;17.05;63.47
66385;BME280;53426;55.872;37.462;2023-07-13T09:04:19;98257.41;;;17.00;64.88
66385;BME280;53426;55.872;37.462;2023-07-13T09:12:11;98286.25;;;16.70;67.09
66385;BME280;53426;55.872;37.462;2023-07-13T09:14:58;98297.13;;;16.62;67.66
66385;BME280;53426;55.872;37.462;2023-07-13T09:17:47;98262.22;;;16.36;67.27
66385;BME280;53426;55.872;37.462;2023-07-13T09:23:10;98272.84;;;16.29;69.07
66385;BME280;53426;55.872;37.462;2023-07-13T09:25:39;98283.84;;;16.47;67.99
66385;BME280;53426;55.872;37.462;2023-07-13T09:28:19;98280.19;;;16.55;69.41
66385;BME280;53426;55.872;37.462;2023-07-13T09:31:14;98286.16;;;16.57;69.82
66385;BME280;53426;55.872;37.462;2023-07-13T09:33:40;98290.00;;;16.48;69.42
66385;BME280;53426;55.872;37.462;2023-07-13T09:36:19;98254.38;;;16.34;69.93
66385;BME280;53426;55.872;37.462;2023-07-13T09:38:48;98262.16;;;16.29;69.37
66385;BME280;53426;55.872;37.462;2023-07-13T09:44:12;98276.09;;;16.24;70.95
66385;BME280;53426;55.872;37.462;2023-07-13T09:49:43;98273.63;;;15.95;70.99
66385;BME280;53426;55.872;37.462;2023-07-13T09:52:14;98270.97;;;15.95;71.05
66385;BME280;53426;55.872;37.462;2023-07-13T09:54:44;98266.50;;;16.02;71.48
66385;BME280;53426;55.872;37.462;2023-07-13T09:57:16;98266.75;;;16.07;72.11
66385;BME280;53426;55.872;37.462;2023-07-13T09:59:50;98271.84;;;16.02;72.00
66385;BME280;53426;55.872;37.462;2023-07-13T10:02:27;98271.13;;;15.94;72.29
66385;BME280;53426;55.872;37.462;2023-07-13T10:05:33;98275.66;;;15.93;71.73
66385;BME280;53426;55.872;37.462;2023-07-13T10:07:55;98279.72;;;15.89;71.55
66385;BME280;53426;55.872;37.462;2023-07-13T10:10:22;98247.63;;;15.76;72.20
66385;BME280;53426;55.872;37.462;2023-07-13T10:12:50;98266.00;;;15.92;72.06
66385;BME280;53426;55.872;37.462;2023-07-13T10:15:22;98269.28;;;15.94;72.01
66385;BME280;53426;55.872;37.462;2023-07-13T10:17:50;98277.25;;;15.87;71.78
66385;BME280;53426;55.872;37.462;2023-07-13T10:20:17;98256.38;;;15.70;72.63
66385;BME280;53426;55.872;37.462;2023-07-13T10:23:05;98250.59;;;15.66;72.02
66385;BME280;53426;55.872;37.462;2023-07-13T10:25:39;98277.66;;;15.84;72.51
66385;BME280;53426;55.872;37.462;2023-07-13T10:28:30;98274.50;;;15.74;72.66
66385;BME280;53426;55.872;37.462;2023-07-13T10:30:59;98264.97;;;15.65;72.84
66385;BME280;53426;55.872;37.462;2023-07-13T10:33:26;98259.94;;;15.56;73.00
66385;BME280;53426;55.872;37.462;2023-07-13T10:35:59;98265.38;;;15.47;72.04
66385;BME280;53426;55.872;37.462;2023-07-13T10:38:27;98282.34;;;15.61;72.22
66385;BME280;53426;55.872;37.462;2023-07-13T10:41:10;98235.59;;;15.23;72.96
66385;BME280;53426;55.872;37.462;2023-07-13T10:43:41;98277.47;;;15.43;73.30
66385;BME280;53426;55.872;37.462;2023-07-13T10:46:11;98270.72;;;15.26;74.03
66385;BME280;53426;55.872;37.462;2023-07-13T10:48:40;98252.03;;;15.05;74.21
66385;BME280;53426;55.872;37.462;2023-07-13T10:51:09;98235.44;;;14.88;75.44
66385;BME280;53426;55.872;37.462;2023-07-13T10:53:38;98283.19;;;15.04;74.87
66385;BME280;53426;55.872;37.462;2023-07-13T10:56:26;98288.69;;;15.03;75.23
66385;BME280;53426;55.872;37.462;2023-07-13T11:01:28;98291.66;;;14.93;74.79
66385;BME280;53426;55.872;37.462;2023-07-13T11:04:04;98290.38;;;14.89;76.49
66385;BME280;53426;55.872;37.462;2023-07-13T11:06:37;98233.47;;;14.61;76.53
66385;BME280;53426;55.872;37.462;2023-07-13T11:09:35;98277.16;;;14.81;75.92
66385;BME280;53426;55.872;37.462;2023-07-13T11:22:44;98284.91;;;14.61;77.65
66385;BME280;53426;55.872;37.462;2023-07-13T11:27:46;98287.28;;;14.71;76.69
66385;BME280;53426;55.872;37.462;2023-07-13T11:32:40;98291.34;;;14.67;78.02
66385;BME280;53426;55.872;37.462;2023-07-13T11:35:14;98291.69;;;14.64;78.12
66385;BME280;53426;55.872;37.462;2023-07-13T11:37:46;98292.91;;;14.61;78.54
66385;BME280;53426;55.872;37.462;2023-07-13T11:40:14;98293.72;;;14.62;79.60
66385;BME280;53426;55.872;37.462;2023-07-13T11:42:40;98270.41;;;14.49;80.15
66385;BME280;53426;55.872;37.462;2023-07-13T11:45:19;98267.56;;;14.51;80.68
66385;BME280;53426;55.872;37.462;2023-07-13T11:47:45;98295.91;;;14.73;80.77
66385;BME280;53426;55.872;37.462;2023-07-13T11:50:22;98291.78;;;14.71;80.74
66385;BME280;53426;55.872;37.462;2023-07-13T11:52:50;98281.59;;;14.59;81.23
66385;BME280;53426;55.872;37.462;2023-07-13T11:55:21;98288.19;;;14.63;80.83
66385;BME280;53426;55.872;37.462;2023-07-13T11:57:57;98291.63;;;14.72;81.50
66385;BME280;53426;55.872;37.462;2023-07-13T12:00:26;98297.47;;;14.82;81.06
66385;BME280;53426;55.872;37.462;2023-07-13T12:02:56;98291.97;;;14.69;81.15
66385;BME280;53426;55.872;37.462;2023-07-13T12:05:24;98301.44;;;14.72;81.47
66385;BME280;53426;55.872;37.462;2023-07-13T12:07:51;98305.09;;;14.71;81.77
66385;BME280;53426;55.872;37.462;2023-07-13T12:10:25;98285.44;;;14.72;82.73
66385;BME280;53426;55.872;37.462;2023-07-13T12:13:01;98299.66;;;14.79;81.98
66385;BME280;53426;55.872;37.462;2023-07-13T12:15:41;98290.13;;;14.70;82.11
66385;BME280;53426;55.872;37.462;2023-07-13T12:18:20;98275.81;;;14.71;82.29
66385;BME280;53426;55.872;37.462;2023-07-13T12:20:48;98291.06;;;14.77;81.98
66385;BME280;53426;55.872;37.462;2023-07-13T12:23:36;98281.84;;;14.79;81.88
66385;BME280;53426;55.872;37.462;2023-07-13T12:26:03;98260.94;;;14.61;81.87
66385;BME280;53426;55.872;37.462;2023-07-13T12:31:01;98247.88;;;14.67;81.82
66385;BME280;53426;55.872;37.462;2023-07-13T12:33:30;98245.97;;;14.60;81.25
66385;BME280;53426;55.872;37.462;2023-07-13T12:36:05;98266.06;;;14.78;80.95
66385;BME280;53426;55.872;37.462;2023-07-13T12:38:32;98286.50;;;14.92;81.35
66385;BME280;53426;55.872;37.462;2023-07-13T12:41:01;98286.97;;;14.95;81.34
66385;BME280;53426;55.872;37.462;2023-07-13T12:43:33;98259.78;;;14.85;81.42
66385;BME280;53426;55.872;37.462;2023-07-13T12:46:05;98269.97;;;14.96;81.58
66385;BME280;53426;55.872;37.462;2023-07-13T12:48:42;98266.59;;;14.88;80.82
66385;BME280;53426;55.872;37.462;2023-07-13T12:51:13;98265.00;;;14.93;81.25
66385;BME280;53426;55.872;37.462;2023-07-13T12:53:41;98244.75;;;14.78;81.20
66385;BME280;53426;55.872;37.462;2023-07-13T12:56:18;98266.84;;;14.93;81.12
66385;BME280;53426;55.872;37.462;2023-07-13T12:58:45;98273.28;;;14.98;80.87
66385;BME280;53426;55.872;37.462;2023-07-13T13:01:15;98278.13;;;14.95;80.36
66385;BME280;53426;55.872;37.462;2023-07-13T13:03:48;98269.81;;;14.83;81.07
66385;BME280;53426;55.872;37.462;2023-07-13T13:08:46;98250.69;;;14.80;81.05
66385;BME280;53426;55.872;37.462;2023-07-13T13:11:15;98279.53;;;14.91;81.11
66385;BME280;53426;55.872;37.462;2023-07-13T13:13:42;98261.75;;;14.77;80.69
66385;BME280;53426;55.872;37.462;2023-07-13T13:18:49;98257.50;;;14.68;80.89
66385;BME280;53426;55.872;37.462;2023-07-13T13:21:16;98257.25;;;14.62;80.66
66385;BME280;53426;55.872;37.462;2023-07-13T13:23:43;98265.97;;;14.71;80.11
66385;BME280;53426;55.872;37.462;2023-07-13T13:26:14;98280.47;;;14.69;81.00
66385;BME280;53426;55.872;37.462;2023-07-13T13:28:45;98250.47;;;14.45;81.56
66385;BME280;53426;55.872;37.462;2023-07-13T13:31:15;98250.28;;;14.47;81.40
66385;BME280;53426;55.872;37.462;2023-07-13T13:33:43;98272.34;;;14.55;82.05
66385;BME280;53426;55.872;37.462;2023-07-13T13:36:19;98255.13;;;14.58;82.93
66385;BME280;53426;55.872;37.462;2023-07-13T13:38:49;98205.06;;;14.24;83.08
66385;BME280;53426;55.872;37.462;2023-07-13T13:41:16;98264.13;;;14.57;82.97
66385;BME280;53426;55.872;37.462;2023-07-13T13:43:43;98271.28;;;14.56;82.54
66385;BME280;53426;55.872;37.462;2023-07-13T13:46:15;98263.41;;;14.48;82.14
66385;BME280;53426;55.872;37.462;2023-07-13T13:48:43;98251.84;;;14.41;82.04
66385;BME280;53426;55.872;37.462;2023-07-13T13:51:17;98265.34;;;14.54;81.85
66385;BME280;53426;55.872;37.462;2023-07-13T13:53:44;98265.53;;;14.53;81.88
66385;BME280;53426;55.872;37.462;2023-07-13T13:56:12;98250.00;;;14.42;81.21
66385;BME280;53426;55.872;37.462;2023-07-13T13:58:38;98264.81;;;14.44;80.74
66385;BME280;53426;55.872;37.462;2023-07-13T14:01:04;98282.22;;;14.47;80.94